Time;durP1;ratioP1;P1;durP2;ratioP2;P2;SDS_P1;SDS_P2;PMS_P1;PMS_P2;Temp;Humidity;BMP_temperature;BMP_pressure;BME280_temperature;BME280_humidity;BME280_pressure;Samples;Min_cycle;Max_cycle;Signal;HPM_P1;HPM_P2
2022/03/12 00:00:57;;;;;;;13.70;11.35;;;5.50;66.40;;;;;;5066098;28;20524;-79
2022/03/12 00:03:23;;;;;;;15.63;12.13;;;5.10;66.40;;;;;;5050301;28;20236;-79
2022/03/12 00:05:54;;;;;;;15.90;10.85;;;5.00;66.50;;;;;;5069299;28;20462;-79
2022/03/12 00:08:30;;;;;;;15.00;11.55;;;5.40;66.80;;;;;;5062579;28;20524;-79
2022/03/12 00:10:56;;;;;;;15.27;10.70;;;5.30;67.00;;;;;;5067108;28;20668;-79
2022/03/12 00:13:21;;;;;;;15.67;11.90;;;5.00;66.50;;;;;;5046651;28;20246;-79
2022/03/12 00:15:50;;;;;;;16.73;11.60;;;5.50;66.90;;;;;;5052500;28;20209;-79
2022/03/12 00:18:19;;;;;;;14.85;11.52;;;5.20;67.40;;;;;;5064840;28;20435;-79
2022/03/12 00:20:46;;;;;;;16.63;11.20;;;5.30;66.70;;;;;;5067372;28;20190;-78
2022/03/12 00:23:21;;;;;;;15.90;10.93;;;5.50;67.60;;;;;;5066548;28;20236;-79
2022/03/12 00:25:49;;;;;;;13.60;10.85;;;5.00;68.00;;;;;;5047624;28;20272;-78
2022/03/12 00:28:18;;;;;;;14.23;11.77;;;5.00;67.40;;;;;;5065682;28;20187;-78
2022/03/12 00:30:46;;;;;;;18.27;10.70;;;4.80;67.30;;;;;;5061296;28;20526;-78
2022/03/12 00:33:12;;;;;;;15.80;12.73;;;5.10;67.20;;;;;;5068041;28;20651;-78
2022/03/12 00:35:38;;;;;;;15.23;12.32;;;5.10;67.00;;;;;;5046440;28;20216;-78
2022/03/12 00:38:03;;;;;;;13.40;11.33;;;5.10;67.00;;;;;;5062780;28;20265;-79
2022/03/12 00:40:29;;;;;;;14.90;11.17;;;5.00;68.00;;;;;;5056578;28;20185;-78
2022/03/12 00:42:55;;;;;;;15.87;11.03;;;5.60;68.10;;;;;;5047142;28;20531;-78
2022/03/12 00:45:20;;;;;;;13.10;10.60;;;5.40;67.20;;;;;;5069462;28;20229;-79
2022/03/12 00:47:48;;;;;;;14.00;11.37;;;5.60;67.40;;;;;;5041737;28;20181;-78
2022/03/12 00:50:13;;;;;;;14.57;11.15;;;5.90;67.70;;;;;;5066971;28;20181;-79
2022/03/12 00:52:39;;;;;;;15.53;10.80;;;5.50;66.70;;;;;;5047643;28;20188;-79
2022/03/12 00:55:05;;;;;;;13.90;10.53;;;5.40;67.10;;;;;;5049719;28;20294;-78
2022/03/12 00:57:30;;;;;;;13.05;11.10;;;5.30;66.20;;;;;;5048893;28;20215;-79
2022/03/12 00:59:56;;;;;;;16.10;11.07;;;5.30;66.70;;;;;;5069361;28;20693;-78
2022/03/12 01:02:21;;;;;;;12.80;10.90;;;5.80;67.30;;;;;;5062479;28;20291;-79
2022/03/12 01:04:47;;;;;;;15.97;11.80;;;5.20;66.60;;;;;;5064229;28;20240;-79
2022/03/12 01:07:13;;;;;;;15.67;11.90;;;5.40;67.30;;;;;;5055745;28;20267;-78
2022/03/12 01:09:39;;;;;;;12.52;11.23;;;5.20;68.30;;;;;;5049392;28;20317;-79
2022/03/12 01:12:07;;;;;;;13.68;11.25;;;5.20;68.80;;;;;;5062593;28;20194;-78
2022/03/12 01:14:32;;;;;;;14.43;11.15;;;5.20;68.20;;;;;;5062199;28;20255;-78
2022/03/12 01:16:58;;;;;;;15.20;12.50;;;5.40;67.70;;;;;;5067820;28;20279;-78
2022/03/12 01:19:25;;;;;;;17.13;11.93;;;5.70;68.20;;;;;;5068881;28;20864;-79
2022/03/12 01:21:51;;;;;;;13.02;10.55;;;5.40;68.00;;;;;;5064086;28;20207;-78
2022/03/12 01:24:17;;;;;;;13.95;11.40;;;5.00;67.90;;;;;;5052183;28;20584;-78
2022/03/12 01:26:42;;;;;;;17.63;11.60;;;5.40;68.60;;;;;;5049356;28;20181;-79
2022/03/12 01:29:08;;;;;;;15.90;11.67;;;5.50;68.60;;;;;;5041169;28;20453;-79
2022/03/12 01:31:37;;;;;;;19.57;11.07;;;5.70;68.30;;;;;;5048804;28;20196;-79
2022/03/12 01:34:03;;;;;;;17.88;11.50;;;5.50;68.00;;;;;;5049520;28;20188;-79
2022/03/12 01:36:30;;;;;;;18.95;11.73;;;5.40;67.60;;;;;;5061620;28;20196;-79
2022/03/12 01:38:57;;;;;;;14.55;10.35;;;4.80;67.70;;;;;;5070616;28;20201;-79
2022/03/12 01:41:29;;;;;;;17.42;11.10;;;5.30;68.70;;;;;;5069968;28;20193;-79
2022/03/12 01:43:57;;;;;;;15.60;11.60;;;5.30;69.00;;;;;;5048868;28;20216;-79
2022/03/12 01:46:33;;;;;;;15.18;11.07;;;5.60;68.80;;;;;;5068498;28;20338;-79
2022/03/12 01:49:03;;;;;;;13.70;11.40;;;5.30;67.90;;;;;;5054718;28;20195;-79
2022/03/12 01:51:29;;;;;;;15.65;10.55;;;5.50;67.90;;;;;;5048318;28;20770;-78
2022/03/12 01:53:56;;;;;;;15.07;9.88;;;5.60;68.40;;;;;;5071462;28;20688;-78
2022/03/12 01:56:27;;;;;;;13.80;11.02;;;5.30;69.00;;;;;;5068874;28;21548;-79
2022/03/12 01:58:53;;;;;;;14.68;11.20;;;5.20;69.20;;;;;;5063421;28;20311;-79
2022/03/12 02:01:19;;;;;;;13.80;10.50;;;4.80;68.90;;;;;;5069238;28;20189;-79
2022/03/12 02:03:45;;;;;;;15.93;11.17;;;5.40;68.60;;;;;;5061353;28;20754;-79
2022/03/12 02:06:15;;;;;;;13.73;10.80;;;6.00;68.50;;;;;;5066184;28;20728;-78
2022/03/12 02:08:41;;;;;;;16.50;10.35;;;5.50;67.30;;;;;;5071932;28;20236;-78
2022/03/12 02:11:07;;;;;;;14.25;10.73;;;6.10;67.70;;;;;;5072144;28;20203;-79
2022/03/12 02:13:34;;;;;;;12.95;9.82;;;6.00;66.30;;;;;;5068421;28;20195;-78
2022/03/12 02:16:07;;;;;;;13.60;10.35;;;6.10;66.50;;;;;;5065871;28;20383;-78
2022/03/12 02:18:32;;;;;;;12.90;10.50;;;6.30;66.60;;;;;;5063298;28;20195;-78
2022/03/12 02:20:59;;;;;;;13.00;9.70;;;6.20;66.20;;;;;;5050546;28;20180;-78
2022/03/12 02:23:24;;;;;;;11.65;9.40;;;5.70;67.40;;;;;;5065613;28;20461;-79
2022/03/12 02:25:50;;;;;;;16.20;9.93;;;5.90;66.90;;;;;;5071591;28;20211;-79
2022/03/12 02:28:18;;;;;;;12.57;10.43;;;5.50;67.80;;;;;;5067787;28;20288;-79
2022/03/12 02:30:51;;;;;;;15.23;10.23;;;5.60;67.80;;;;;;5072835;28;20754;-79
2022/03/12 02:33:24;;;;;;;15.85;10.85;;;5.70;67.00;;;;;;5067470;28;20187;-79
2022/03/12 02:35:52;;;;;;;12.15;9.20;;;5.80;67.10;;;;;;5071896;28;20349;-79
2022/03/12 02:38:21;;;;;;;12.23;10.20;;;5.90;67.60;;;;;;5064992;28;20242;-79
2022/03/12 02:40:48;;;;;;;14.00;10.50;;;5.90;65.80;;;;;;5066405;28;20191;-78
2022/03/12 02:43:13;;;;;;;12.43;10.25;;;5.80;64.50;;;;;;5067919;28;20219;-78
2022/03/12 02:45:40;;;;;;;11.00;9.67;;;5.60;64.80;;;;;;5070299;28;20243;-79
2022/03/12 02:48:10;;;;;;;11.88;9.38;;;5.80;64.70;;;;;;5053310;28;20668;-79
2022/03/12 02:50:36;;;;;;;12.95;9.55;;;5.80;63.70;;;;;;5070563;28;20187;-79
2022/03/12 02:53:02;;;;;;;13.57;10.05;;;5.70;63.50;;;;;;5047498;28;20647;-79
2022/03/12 02:55:34;;;;;;;10.70;9.20;;;5.70;63.60;;;;;;5049436;28;20205;-79
2022/03/12 02:58:00;;;;;;;14.40;10.95;;;5.80;63.00;;;;;;5046823;28;20253;-79
2022/03/12 03:00:26;;;;;;;12.30;8.93;;;5.80;64.30;;;;;;5048940;28;20188;-79
2022/03/12 03:02:53;;;;;;;13.73;9.67;;;5.90;65.10;;;;;;5069963;28;20454;-79
2022/03/12 03:08:04;;;;;;;13.80;9.88;;;5.70;65.00;;;;;;5066451;28;20187;-78
2022/03/12 03:10:35;;;;;;;16.40;10.45;;;5.60;64.90;;;;;;5042996;28;20181;-79
2022/03/12 03:13:13;;;;;;;11.27;9.15;;;5.60;64.90;;;;;;5037811;28;20202;-79
2022/03/12 03:15:39;;;;;;;15.90;9.80;;;5.30;65.80;;;;;;5046505;28;20262;-79
2022/03/12 03:18:05;;;;;;;10.77;8.60;;;5.00;65.40;;;;;;5048528;28;20189;-79
2022/03/12 03:20:33;;;;;;;14.80;9.38;;;5.80;64.70;;;;;;5054447;28;20183;-78
2022/03/12 03:22:58;;;;;;;11.10;9.30;;;6.00;64.90;;;;;;5064213;28;20236;-78
2022/03/12 03:25:24;;;;;;;12.00;8.97;;;5.60;64.80;;;;;;5068558;28;20227;-78
2022/03/12 03:27:50;;;;;;;11.97;9.37;;;5.40;63.90;;;;;;5060912;28;20199;-78
2022/03/12 03:30:15;;;;;;;14.02;9.13;;;5.30;64.10;;;;;;5065182;28;20278;-79
2022/03/12 03:32:42;;;;;;;11.93;8.85;;;5.10;64.70;;;;;;5065745;28;20207;-79
2022/03/12 03:35:08;;;;;;;11.60;8.30;;;5.70;65.30;;;;;;5065204;28;20218;-78
2022/03/12 03:37:33;;;;;;;13.57;9.57;;;5.50;64.30;;;;;;5054174;28;20580;-78
2022/03/12 03:39:59;;;;;;;12.33;9.57;;;5.60;63.80;;;;;;5048232;28;20433;-78
2022/03/12 03:42:24;;;;;;;11.00;8.93;;;5.40;63.50;;;;;;5066899;28;20290;-78
2022/03/12 03:44:52;;;;;;;14.63;9.63;;;5.40;64.10;;;;;;5038137;28;20208;-78
2022/03/12 03:47:17;;;;;;;15.63;10.68;;;4.90;63.60;;;;;;5069574;28;20187;-79
2022/03/12 03:49:44;;;;;;;11.30;9.40;;;5.40;64.00;;;;;;5069647;28;20177;-78
2022/03/12 03:52:10;;;;;;;12.32;9.10;;;5.30;64.50;;;;;;5061911;28;20189;-79
2022/03/12 03:54:36;;;;;;;11.88;9.40;;;5.40;64.00;;;;;;5048894;28;20218;-78
2022/03/12 03:57:01;;;;;;;10.30;8.70;;;5.30;63.60;;;;;;5068481;28;20175;-79
2022/03/12 03:59:28;;;;;;;12.70;9.73;;;5.20;63.30;;;;;;5062302;28;20531;-79
2022/03/12 04:01:54;;;;;;;9.95;8.80;;;5.30;63.40;;;;;;5068217;28;20625;-79
2022/03/12 04:04:20;;;;;;;10.20;8.23;;;5.70;63.80;;;;;;5066028;28;20305;-79
2022/03/12 04:06:46;;;;;;;11.50;8.98;;;5.50;63.90;;;;;;5066852;28;20188;-79
2022/03/12 04:09:12;;;;;;;12.60;9.37;;;5.70;63.50;;;;;;5058254;28;20191;-79
2022/03/12 04:11:38;;;;;;;12.07;8.87;;;5.20;63.50;;;;;;5060598;28;20216;-79
2022/03/12 04:14:05;;;;;;;9.95;8.10;;;5.40;63.90;;;;;;5064062;28;20446;-79
2022/03/12 04:16:31;;;;;;;11.73;8.82;;;5.40;63.90;;;;;;5069268;28;20184;-78
2022/03/12 04:18:57;;;;;;;10.10;7.77;;;5.20;63.90;;;;;;5067480;28;20197;-78
2022/03/12 04:21:23;;;;;;;10.90;8.63;;;5.00;64.00;;;;;;5074352;28;20665;-78
2022/03/12 04:23:49;;;;;;;11.47;9.13;;;5.50;65.50;;;;;;5058832;28;20837;-79
2022/03/12 04:26:16;;;;;;;11.20;8.98;;;5.10;64.70;;;;;;5064311;28;20687;-79
2022/03/12 04:28:42;;;;;;;12.98;9.10;;;5.00;64.40;;;;;;5068651;28;20202;-79
2022/03/12 04:31:08;;;;;;;11.00;8.70;;;4.80;64.50;;;;;;5047031;28;20566;-78
2022/03/12 04:33:35;;;;;;;11.50;8.80;;;4.70;65.40;;;;;;5053902;28;20639;-79
2022/03/12 04:36:03;;;;;;;12.93;8.82;;;4.70;65.30;;;;;;5063812;28;20208;-78
2022/03/12 04:38:29;;;;;;;12.43;8.90;;;4.90;65.60;;;;;;5067552;28;20184;-78
2022/03/12 04:40:55;;;;;;;10.48;9.20;;;5.00;65.50;;;;;;5050440;28;20192;-79
2022/03/12 04:43:22;;;;;;;10.45;8.85;;;5.00;65.20;;;;;;5071406;28;20206;-79
2022/03/12 04:45:49;;;;;;;15.48;9.45;;;5.00;65.10;;;;;;5066605;28;20240;-79
2022/03/12 04:48:18;;;;;;;10.68;8.32;;;5.20;65.10;;;;;;5057846;28;20241;-79
2022/03/12 04:50:44;;;;;;;11.07;9.38;;;4.90;64.00;;;;;;5056989;28;20631;-79
2022/03/12 04:53:09;;;;;;;12.03;8.53;;;5.00;64.80;;;;;;5051138;28;20191;-79
2022/03/12 04:55:36;;;;;;;11.63;8.60;;;4.70;65.00;;;;;;5074488;28;20241;-79
2022/03/12 04:58:04;;;;;;;10.52;9.32;;;5.00;65.80;;;;;;5054240;28;20319;-79
2022/03/12 05:00:31;;;;;;;12.15;9.13;;;5.00;64.60;;;;;;5074209;28;20179;-79
2022/03/12 05:03:25;;;;;;;9.68;8.00;;;5.30;66.10;;;;;;5049521;28;20310;-78
2022/03/12 05:05:53;;;;;;;13.80;8.85;;;4.50;64.40;;;;;;5052066;28;20612;-78
2022/03/12 05:08:24;;;;;;;13.20;8.60;;;4.40;64.30;;;;;;5044538;28;20194;-78
2022/03/12 05:10:52;;;;;;;11.25;8.88;;;4.50;64.30;;;;;;5070634;28;20664;-79
2022/03/12 05:13:22;;;;;;;11.27;8.30;;;5.50;65.10;;;;;;5073034;28;20188;-79
2022/03/12 05:15:49;;;;;;;17.90;9.57;;;5.10;63.40;;;;;;5056126;28;20580;-79
2022/03/12 05:18:15;;;;;;;10.02;8.45;;;5.60;64.60;;;;;;5072597;28;20597;-79
2022/03/12 05:20:48;;;;;;;10.77;8.80;;;5.80;63.70;;;;;;5061810;28;20740;-78
2022/03/12 05:23:15;;;;;;;10.02;8.50;;;5.50;63.60;;;;;;5068355;28;20212;-79
2022/03/12 05:25:42;;;;;;;10.10;8.23;;;5.40;62.80;;;;;;5049705;28;20208;-78
2022/03/12 05:28:10;;;;;;;10.23;8.30;;;5.60;62.50;;;;;;5053664;28;20203;-79
2022/03/12 05:30:36;;;;;;;10.15;8.50;;;5.30;62.10;;;;;;5064277;28;20207;-79
2022/03/12 05:33:04;;;;;;;10.77;8.10;;;5.50;62.00;;;;;;5072855;28;20194;-79
2022/03/12 05:35:30;;;;;;;10.82;8.48;;;6.00;62.60;;;;;;5072665;28;20268;-78
2022/03/12 05:37:55;;;;;;;8.87;7.77;;;5.60;62.00;;;;;;5067598;28;20189;-78
2022/03/12 05:40:26;;;;;;;9.97;8.57;;;5.40;61.80;;;;;;5070269;28;20249;-79
2022/03/12 05:42:55;;;;;;;13.35;9.25;;;5.60;61.70;;;;;;5067877;28;20713;-79
2022/03/12 05:45:23;;;;;;;9.35;7.90;;;4.80;61.00;;;;;;5070523;28;20224;-78
2022/03/12 05:47:50;;;;;;;12.70;8.18;;;5.40;61.50;;;;;;5052861;28;20177;-79
2022/03/12 05:50:16;;;;;;;11.02;9.15;;;5.50;60.80;;;;;;5071819;28;20183;-79
2022/03/12 05:52:50;;;;;;;10.48;8.30;;;5.30;61.20;;;;;;5062148;28;20554;-79
2022/03/12 05:55:21;;;;;;;10.15;8.13;;;5.50;62.40;;;;;;5071346;28;20207;-78
2022/03/12 05:57:47;;;;;;;10.15;8.10;;;5.30;61.20;;;;;;5067902;28;20304;-79
2022/03/12 06:00:13;;;;;;;11.20;8.32;;;5.70;61.90;;;;;;5060382;28;20684;-79
2022/03/12 06:02:49;;;;;;;12.23;8.05;;;5.20;61.40;;;;;;5070325;28;20544;-79
2022/03/12 06:05:14;;;;;;;9.77;8.73;;;5.20;61.80;;;;;;5070022;28;20202;-79
2022/03/12 06:07:45;;;;;;;10.50;8.67;;;4.70;61.70;;;;;;5050612;28;20196;-79
2022/03/12 06:10:15;;;;;;;11.60;8.20;;;4.80;61.10;;;;;;5065932;28;20445;-79
2022/03/12 06:12:43;;;;;;;11.63;8.15;;;5.30;61.00;;;;;;5050248;28;20550;-78
2022/03/12 06:15:11;;;;;;;11.82;7.70;;;5.20;60.70;;;;;;5066232;28;20340;-79
2022/03/12 06:17:38;;;;;;;10.30;8.30;;;5.00;60.70;;;;;;5055277;28;20647;-78
2022/03/12 06:20:04;;;;;;;10.57;8.63;;;5.50;61.00;;;;;;5059309;28;20189;-78
2022/03/12 06:22:30;;;;;;;11.18;7.97;;;5.30;61.60;;;;;;5053316;28;20187;-79
2022/03/12 06:24:55;;;;;;;9.77;8.20;;;5.40;62.40;;;;;;5051159;28;20206;-78
2022/03/12 06:27:22;;;;;;;10.37;8.23;;;5.90;62.70;;;;;;5060069;28;20193;-77
2022/03/12 06:29:47;;;;;;;12.57;8.57;;;5.60;61.70;;;;;;5062782;28;20245;-79
2022/03/12 06:32:13;;;;;;;10.40;8.53;;;5.60;62.10;;;;;;5062955;28;20667;-79
2022/03/12 06:34:40;;;;;;;11.48;8.15;;;5.00;60.80;;;;;;5046989;28;20311;-79
2022/03/12 06:37:07;;;;;;;13.77;8.57;;;5.50;61.70;;;;;;5045295;28;20271;-78
2022/03/12 06:39:33;;;;;;;9.50;8.50;;;5.50;61.70;;;;;;5064661;28;20651;-79
2022/03/12 06:41:59;;;;;;;11.17;8.00;;;5.40;61.40;;;;;;5051572;28;20237;-79
2022/03/12 06:44:30;;;;;;;9.35;7.82;;;5.20;61.00;;;;;;5038100;28;20254;-79
2022/03/12 06:46:55;;;;;;;12.23;8.85;;;5.60;61.40;;;;;;5051520;28;20279;-78
2022/03/12 06:49:21;;;;;;;12.80;9.37;;;5.80;61.20;;;;;;5068486;28;20260;-79
2022/03/12 06:51:46;;;;;;;9.30;7.80;;;5.60;60.00;;;;;;5060957;28;20188;-79
2022/03/12 06:54:12;;;;;;;8.50;7.50;;;5.70;59.50;;;;;;5066137;28;20720;-79
2022/03/12 06:56:39;;;;;;;11.90;9.10;;;5.70;59.50;;;;;;5059690;28;20194;-79
2022/03/12 06:59:04;;;;;;;15.30;8.95;;;5.80;59.60;;;;;;5046484;28;20212;-79
2022/03/12 07:01:30;;;;;;;10.40;8.00;;;6.40;59.80;;;;;;5041337;28;20635;-79
2022/03/12 07:03:55;;;;;;;12.03;8.70;;;6.10;59.20;;;;;;5053673;28;20666;-79
2022/03/12 07:06:21;;;;;;;9.73;8.70;;;6.60;59.30;;;;;;5068588;28;20256;-79
2022/03/12 07:08:47;;;;;;;11.87;8.37;;;6.40;58.80;;;;;;5058820;28;20646;-79
2022/03/12 07:11:13;;;;;;;11.05;8.07;;;6.50;59.00;;;;;;5060364;28;20181;-78
2022/03/12 07:13:39;;;;;;;11.02;7.90;;;6.70;58.80;;;;;;5062663;28;20189;-79
2022/03/12 07:16:04;;;;;;;9.27;8.37;;;6.70;58.10;;;;;;5064183;28;20263;-79
2022/03/12 07:18:30;;;;;;;11.47;8.13;;;6.60;58.10;;;;;;5063623;28;20228;-79
2022/03/12 07:20:56;;;;;;;9.70;8.03;;;6.90;57.60;;;;;;5067195;28;20185;-79
2022/03/12 07:23:21;;;;;;;10.30;8.53;;;7.00;57.70;;;;;;5049999;28;20204;-78
2022/03/12 07:25:47;;;;;;;11.32;8.20;;;7.70;57.20;;;;;;5040323;28;20264;-79
2022/03/12 07:28:17;;;;;;;13.13;8.50;;;8.20;56.00;;;;;;5062512;28;20641;-79
2022/03/12 07:30:43;;;;;;;10.05;7.55;;;8.20;54.00;;;;;;5040978;28;20804;-79
2022/03/12 07:33:09;;;;;;;13.38;10.60;;;8.90;52.70;;;;;;5049207;28;20196;-79
2022/03/12 07:35:35;;;;;;;12.90;9.50;;;9.10;52.30;;;;;;5063122;28;20616;-79
2022/03/12 07:38:00;;;;;;;14.33;11.27;;;9.20;51.90;;;;;;5039090;28;20183;-80
2022/03/12 07:40:26;;;;;;;10.30;9.17;;;10.00;50.70;;;;;;5068960;28;20227;-77
2022/03/12 07:42:52;;;;;;;12.50;8.27;;;10.30;50.00;;;;;;5053966;28;20706;-79
2022/03/12 07:45:19;;;;;;;10.83;9.73;;;10.00;48.80;;;;;;5065279;28;20216;-79
2022/03/12 07:47:44;;;;;;;13.70;9.57;;;11.00;48.20;;;;;;5068629;28;20201;-79
2022/03/12 07:50:11;;;;;;;12.60;10.20;;;10.70;46.20;;;;;;5049609;28;20218;-79
2022/03/12 07:52:37;;;;;;;11.95;9.50;;;10.90;47.20;;;;;;5060115;28;20180;-79
2022/03/12 07:55:04;;;;;;;10.27;9.17;;;9.80;48.70;;;;;;5067159;28;20563;-79
2022/03/12 07:57:30;;;;;;;11.13;9.40;;;9.90;49.50;;;;;;5059406;28;20798;-81
2022/03/12 07:59:55;;;;;;;11.80;9.00;;;11.10;48.10;;;;;;5054849;28;20178;-84
2022/03/12 08:02:21;;;;;;;11.57;9.30;;;11.60;47.60;;;;;;5067692;28;20224;-84
2022/03/12 08:04:47;;;;;;;12.10;9.83;;;12.50;46.50;;;;;;5067955;28;20689;-85
2022/03/12 08:07:12;;;;;;;13.23;9.60;;;12.40;45.20;;;;;;5043005;28;20235;-84
2022/03/12 08:09:38;;;;;;;12.50;11.20;;;13.00;45.30;;;;;;5068226;28;20284;-85
2022/03/12 08:12:04;;;;;;;12.57;10.40;;;12.00;45.10;;;;;;5051598;28;20806;-82
2022/03/12 08:14:31;;;;;;;13.15;9.77;;;12.20;45.70;;;;;;5062199;28;20224;-83
2022/03/12 08:16:57;;;;;;;14.40;9.55;;;11.40;45.20;;;;;;5050354;28;20181;-84
2022/03/12 08:19:23;;;;;;;12.90;9.77;;;12.60;46.00;;;;;;5049579;28;20276;-84
2022/03/12 08:21:50;;;;;;;12.32;10.13;;;12.50;45.60;;;;;;5050165;28;20188;-83
2022/03/12 08:24:16;;;;;;;15.02;10.20;;;12.00;45.90;;;;;;5050051;28;20291;-84
2022/03/12 08:26:43;;;;;;;12.90;9.90;;;12.00;46.00;;;;;;5047888;28;20301;-80
2022/03/12 08:29:10;;;;;;;13.05;9.93;;;11.90;46.10;;;;;;5065922;28;20450;-83
2022/03/12 08:31:37;;;;;;;11.43;9.90;;;12.30;45.80;;;;;;5066692;28;20177;-84
2022/03/12 08:34:03;;;;;;;12.65;10.45;;;12.60;46.20;;;;;;5071842;28;20212;-83
2022/03/12 08:36:28;;;;;;;12.00;10.60;;;12.10;46.10;;;;;;5043049;28;20223;-83
2022/03/12 08:38:54;;;;;;;11.80;10.33;;;11.50;46.80;;;;;;5035255;28;20672;-78
2022/03/12 08:41:22;;;;;;;12.37;10.90;;;11.60;46.70;;;;;;5057646;28;20173;-78
2022/03/12 08:43:48;;;;;;;12.50;11.20;;;11.00;45.90;;;;;;5062360;28;20205;-80
2022/03/12 08:46:15;;;;;;;11.95;10.15;;;11.70;47.30;;;;;;5060324;28;20274;-80
2022/03/12 08:48:41;;;;;;;12.07;10.88;;;12.70;47.20;;;;;;5059475;28;20173;-81
2022/03/12 08:51:07;;;;;;;13.57;10.65;;;13.10;45.60;;;;;;5069012;28;20210;-81
2022/03/12 08:53:33;;;;;;;12.00;10.80;;;14.20;44.40;;;;;;5064646;28;20189;-82
2022/03/12 08:56:00;;;;;;;12.52;10.57;;;15.20;43.50;;;;;;5054389;28;20207;-83
2022/03/12 08:58:26;;;;;;;11.70;10.57;;;15.70;42.40;;;;;;5044045;28;20243;-83
2022/03/12 09:00:53;;;;;;;13.30;11.68;;;16.00;41.60;;;;;;5053208;28;20207;-85
2022/03/12 09:03:20;;;;;;;13.32;11.98;;;16.10;40.50;;;;;;5050070;28;20235;-86
2022/03/12 09:05:47;;;;;;;13.18;11.30;;;17.20;40.30;;;;;;5059741;28;20209;-85
2022/03/12 09:08:12;;;;;;;12.50;11.30;;;15.70;40.60;;;;;;5056452;28;20290;-82
2022/03/12 09:10:38;;;;;;;12.87;11.00;;;16.20;41.30;;;;;;5050142;28;20181;-80
2022/03/12 09:13:06;;;;;;;14.33;12.83;;;16.60;40.90;;;;;;5042989;28;20181;-80
2022/03/12 09:15:34;;;;;;;15.57;11.00;;;16.50;39.70;;;;;;5050032;28;20208;-80
2022/03/12 09:18:00;;;;;;;14.25;12.70;;;17.40;39.70;;;;;;5074857;28;20185;-80
2022/03/12 09:20:26;;;;;;;14.57;12.13;;;16.70;38.90;;;;;;5052711;28;20188;-80
2022/03/12 09:22:51;;;;;;;13.23;11.60;;;15.90;39.80;;;;;;5061517;28;20197;-81
2022/03/12 09:25:17;;;;;;;13.93;12.53;;;15.80;41.30;;;;;;5067602;28;20288;-83
2022/03/12 09:27:45;;;;;;;14.30;12.20;;;16.20;40.30;;;;;;5056551;28;20649;-83
2022/03/12 09:30:14;;;;;;;18.15;11.43;;;17.00;39.40;;;;;;5067664;28;20185;-82
2022/03/12 09:32:40;;;;;;;16.05;12.65;;;18.20;38.20;;;;;;5051203;28;20640;-81
2022/03/12 09:35:07;;;;;;;15.73;13.60;;;18.80;37.50;;;;;;5055172;28;20295;-82
2022/03/12 09:37:32;;;;;;;15.48;12.07;;;18.60;37.10;;;;;;5041170;28;20452;-83
2022/03/12 09:40:01;;;;;;;14.27;12.87;;;18.90;37.60;;;;;;5048397;28;20709;-81
2022/03/12 09:42:30;;;;;;;15.50;13.90;;;18.90;37.20;;;;;;5049855;28;20597;-81
2022/03/12 09:44:57;;;;;;;14.60;13.20;;;19.20;36.90;;;;;;5052199;28;20212;-81
2022/03/12 09:47:22;;;;;;;16.30;12.93;;;19.30;35.90;;;;;;5070326;28;20291;-84
2022/03/12 09:49:48;;;;;;;14.33;12.87;;;19.90;35.80;;;;;;5063250;28;20643;-86
2022/03/12 09:52:14;;;;;;;14.63;13.13;;;19.60;35.30;;;;;;5065179;28;20181;-85
2022/03/12 09:54:40;;;;;;;14.70;13.30;;;20.40;34.80;;;;;;5056752;28;20208;-83
2022/03/12 09:57:05;;;;;;;14.53;13.00;;;21.10;34.10;;;;;;5066447;28;20530;-83
2022/03/12 09:59:31;;;;;;;14.23;12.07;;;21.50;32.80;;;;;;5066056;28;20988;-80
2022/03/12 10:01:57;;;;;;;15.20;13.60;;;22.20;33.30;;;;;;5070080;28;20193;-80
2022/03/12 10:04:23;;;;;;;14.53;13.23;;;22.10;32.40;;;;;;5068763;28;20220;-81
2022/03/12 10:06:49;;;;;;;14.43;12.93;;;22.00;32.10;;;;;;5063478;28;20435;-81
2022/03/12 10:09:15;;;;;;;14.43;12.93;;;22.80;32.20;;;;;;5070443;28;20220;-80
2022/03/12 10:11:44;;;;;;;14.10;12.70;;;23.00;31.50;;;;;;5064434;28;21077;-81
2022/03/12 10:14:10;;;;;;;18.40;15.70;;;22.60;31.60;;;;;;5063143;28;20189;-80
2022/03/12 10:16:35;;;;;;;17.43;13.33;;;22.10;32.10;;;;;;5060633;28;20946;-80
2022/03/12 10:19:01;;;;;;;15.70;14.20;;;22.40;31.40;;;;;;5076483;28;20196;-80
2022/03/12 10:21:27;;;;;;;13.53;12.20;;;22.20;32.70;;;;;;5068399;28;20205;-80
2022/03/12 10:23:52;;;;;;;17.25;13.00;;;22.30;33.00;;;;;;5060464;28;20445;-78
2022/03/12 10:26:18;;;;;;;14.07;12.60;;;21.80;32.90;;;;;;5069841;28;20662;-78
2022/03/12 10:28:44;;;;;;;14.90;13.37;;;22.40;32.60;;;;;;5068479;28;20287;-79
2022/03/12 10:31:12;;;;;;;14.77;13.27;;;21.90;32.90;;;;;;5075891;28;20176;-78
2022/03/12 10:33:38;;;;;;;15.60;13.50;;;21.20;33.50;;;;;;5063297;28;20450;-78
2022/03/12 10:36:12;;;;;;;14.83;12.80;;;21.40;34.50;;;;;;5057101;28;20458;-77
2022/03/12 10:38:48;;;;;;;14.82;13.18;;;21.30;33.80;;;;;;5053018;28;20974;-78
2022/03/12 10:41:15;;;;;;;13.52;12.13;;;20.20;34.50;;;;;;5063947;28;20257;-77
2022/03/12 10:43:55;;;;;;;13.65;11.85;;;20.00;35.80;;;;;;5049693;28;20557;-78
2022/03/12 10:46:23;;;;;;;15.45;12.48;;;19.20;36.80;;;;;;5068355;28;20606;-78
2022/03/12 10:48:57;;;;;;;16.50;12.85;;;19.80;37.30;;;;;;5072928;28;20234;-78
2022/03/12 10:51:41;;;;;;;17.60;13.38;;;19.40;37.50;;;;;;5066231;28;20185;-78
2022/03/12 10:54:15;;;;;;;14.77;13.13;;;18.70;38.30;;;;;;5077465;28;20188;-78
2022/03/12 10:56:48;;;;;;;13.98;12.55;;;19.10;38.30;;;;;;5067936;28;20177;-78
2022/03/12 10:59:16;;;;;;;15.40;13.70;;;19.10;38.20;;;;;;5045503;28;20652;-78
2022/03/12 11:01:49;;;;;;;15.77;13.45;;;19.10;37.00;;;;;;5070917;28;20892;-77
2022/03/12 11:04:17;;;;;;;14.50;12.90;;;19.40;36.90;;;;;;5067644;28;20209;-78
2022/03/12 11:06:43;;;;;;;14.68;12.68;;;19.80;37.20;;;;;;5069570;28;20200;-78
2022/03/12 11:09:15;;;;;;;15.40;12.83;;;20.20;36.70;;;;;;5070022;28;20651;-77
2022/03/12 11:11:42;;;;;;;14.60;13.03;;;21.00;36.20;;;;;;5068198;28;20439;-78
2022/03/12 11:14:17;;;;;;;15.75;13.10;;;21.20;36.20;;;;;;5060810;28;20856;-78
2022/03/12 11:16:50;;;;;;;14.25;12.82;;;20.10;36.50;;;;;;5065590;28;20180;-78
2022/03/12 11:19:17;;;;;;;15.43;13.75;;;19.70;37.40;;;;;;5069926;28;20185;-78
2022/03/12 11:21:53;;;;;;;13.20;11.90;;;20.10;38.10;;;;;;5053198;28;20178;-77
2022/03/12 11:24:24;;;;;;;14.18;12.68;;;20.10;38.30;;;;;;5065732;28;20208;-78
2022/03/12 11:26:54;;;;;;;15.55;13.45;;;20.20;38.30;;;;;;5069448;28;20173;-77
2022/03/12 11:29:22;;;;;;;14.73;12.27;;;19.90;39.20;;;;;;5043017;28;20189;-78
2022/03/12 11:31:58;;;;;;;15.32;13.48;;;20.00;38.00;;;;;;5050758;28;20174;-77
2022/03/12 11:34:26;;;;;;;16.85;13.70;;;19.10;38.10;;;;;;5063795;28;20200;-78
2022/03/12 11:36:55;;;;;;;12.55;11.35;;;19.80;39.70;;;;;;5055804;28;20184;-78
2022/03/12 11:39:30;;;;;;;14.70;12.20;;;19.60;39.80;;;;;;5069759;28;20272;-78
2022/03/12 11:42:01;;;;;;;16.80;12.23;;;19.60;39.30;;;;;;5068440;28;20190;-77
2022/03/12 11:44:28;;;;;;;13.80;12.10;;;19.10;40.60;;;;;;5060820;28;20236;-78
2022/03/12 11:46:54;;;;;;;12.82;11.52;;;18.70;41.90;;;;;;5065755;28;20669;-77
2022/03/12 11:49:19;;;;;;;13.73;12.27;;;18.30;42.20;;;;;;5069600;28;20176;-77
2022/03/12 11:51:46;;;;;;;13.97;12.50;;;18.30;42.90;;;;;;5065894;28;20546;-78
2022/03/12 11:54:12;;;;;;;12.55;11.25;;;18.30;43.60;;;;;;5061983;28;20185;-78
2022/03/12 11:56:38;;;;;;;12.13;10.93;;;18.50;43.50;;;;;;5061212;28;20674;-77
2022/03/12 11:59:04;;;;;;;12.77;10.70;;;18.00;44.10;;;;;;5056266;28;20188;-77
2022/03/12 12:01:35;;;;;;;12.93;11.57;;;17.80;43.70;;;;;;5059109;28;20776;-77
2022/03/12 12:04:01;;;;;;;10.77;9.45;;;17.50;43.70;;;;;;5071292;28;20210;-77
2022/03/12 12:06:26;;;;;;;10.85;9.75;;;17.80;44.60;;;;;;5075760;28;20667;-78
2022/03/12 12:08:53;;;;;;;11.87;10.27;;;17.80;45.10;;;;;;5067819;28;20189;-78
2022/03/12 12:11:18;;;;;;;12.02;10.75;;;18.30;45.50;;;;;;5063569;28;20542;-79
2022/03/12 12:13:44;;;;;;;12.47;10.90;;;18.20;45.60;;;;;;5057291;28;20187;-79
2022/03/12 12:16:11;;;;;;;11.93;10.35;;;18.60;44.60;;;;;;5065619;28;20205;-79
2022/03/12 12:18:36;;;;;;;11.77;9.68;;;18.70;44.80;;;;;;5048945;28;20291;-80
2022/03/12 12:21:02;;;;;;;9.70;8.80;;;18.70;44.50;;;;;;5047796;28;20989;-78
2022/03/12 12:23:27;;;;;;;15.60;9.40;;;18.20;44.80;;;;;;5047378;28;20763;-79
2022/03/12 12:26:07;;;;;;;11.10;9.27;;;18.00;45.30;;;;;;5062685;28;20733;-81
2022/03/12 12:28:44;;;;;;;11.65;10.45;;;17.50;45.20;;;;;;5044789;28;20195;-80
2022/03/12 12:31:19;;;;;;;9.70;8.70;;;17.70;47.00;;;;;;5066861;28;20566;-80
2022/03/12 12:33:44;;;;;;;10.73;8.95;;;17.50;46.90;;;;;;5069077;28;20185;-77
2022/03/12 12:36:16;;;;;;;10.70;9.67;;;17.70;47.10;;;;;;5067373;28;20558;-80
2022/03/12 12:39:10;;;;;;;11.75;10.07;;;17.40;46.80;;;;;;5038938;28;20249;-79
2022/03/12 12:42:01;;;;;;;11.60;10.45;;;17.50;46.10;;;;;;5076520;28;20661;-78